Time;durP1;ratioP1;P1;durP2;ratioP2;P2;SDS_P1;SDS_P2;PMS_P1;PMS_P2;Temp;Humidity;BMP_temperature;BMP_pressure;BME280_temperature;BME280_humidity;BME280_pressure;Samples;Min_cycle;Max_cycle;Signal;HPM_P1;HPM_P2
2024/04/05 00:01:03;;;;;;;9.70;4.85;;;;;;;13.58;100.00;100381.66;5030833;28;20040;-69
2024/04/05 00:03:28;;;;;;;9.23;5.07;;;;;;;13.86;100.00;100436.88;5029564;28;20026;-70
2024/04/05 00:05:54;;;;;;;9.02;5.60;;;;;;;14.05;100.00;100472.91;5030686;28;20025;-70
2024/04/05 00:08:24;;;;;;;12.55;5.22;;;;;;;14.14;100.00;100456.41;5030950;28;20087;-73
2024/04/05 00:10:50;;;;;;;8.40;5.10;;;;;;;14.01;100.00;100429.59;5030867;28;20045;-71
2024/04/05 00:13:15;;;;;;;7.30;4.78;;;;;;;14.22;100.00;100475.69;5030453;28;20020;-70
2024/04/05 00:15:40;;;;;;;7.20;4.85;;;;;;;13.74;100.00;100381.09;5030454;28;20037;-70
2024/04/05 00:18:06;;;;;;;9.95;4.70;;;;;;;13.33;100.00;100430.16;5029812;28;20060;-70
2024/04/05 00:20:31;;;;;;;9.93;4.93;;;;;;;14.26;100.00;100502.84;5029750;28;20393;-70
2024/04/05 00:22:57;;;;;;;12.30;5.35;;;;;;;13.67;100.00;100534.66;5029620;28;20071;-69
2024/04/05 00:25:23;;;;;;;6.72;4.57;;;;;;;13.41;100.00;100550.78;5030203;28;20483;-69
2024/04/05 00:27:55;;;;;;;7.80;4.53;;;;;;;13.03;100.00;100296.66;5030867;28;20025;-69
2024/04/05 00:30:21;;;;;;;9.05;4.35;;;;;;;13.57;100.00;100355.28;5029122;28;20518;-70
2024/04/05 00:32:48;;;;;;;10.52;4.30;;;;;;;13.68;100.00;100411.13;5029944;28;20547;-68
2024/04/05 00:35:13;;;;;;;8.45;4.03;;;;;;;13.86;100.00;100472.66;5030397;28;20108;-70
2024/04/05 00:37:38;;;;;;;7.75;4.40;;;;;;;13.54;100.00;100397.97;5029440;28;20120;-69
2024/04/05 00:40:06;;;;;;;7.63;4.10;;;;;;;13.94;100.00;100386.34;5029821;28;20041;-69
2024/04/05 00:42:34;;;;;;;5.55;3.97;;;;;;;13.47;100.00;100406.75;5010483;28;20040;-69
2024/04/05 00:45:00;;;;;;;8.10;4.70;;;;;;;13.88;100.00;100481.13;5012124;28;20498;-69
2024/04/05 00:47:26;;;;;;;6.43;4.22;;;;;;;13.24;100.00;100407.47;5029900;28;20488;-70
2024/04/05 00:49:52;;;;;;;9.15;4.65;;;;;;;13.56;100.00;100442.19;5011122;28;20041;-69
2024/04/05 00:52:17;;;;;;;9.43;4.25;;;;;;;13.55;100.00;100483.94;5010218;28;20033;-70
2024/04/05 00:54:43;;;;;;;8.27;4.60;;;;;;;13.69;100.00;100451.97;5034172;28;20044;-71
2024/04/05 00:57:09;;;;;;;9.10;4.72;;;;;;;12.85;100.00;100388.28;5034440;28;20049;-71
2024/04/05 00:59:35;;;;;;;10.70;4.60;;;;;;;13.17;100.00;100361.78;5012288;28;20033;-71
2024/04/05 01:02:01;;;;;;;7.90;4.70;;;;;;;13.35;100.00;100460.78;5028835;28;20091;-70
2024/04/05 01:04:26;;;;;;;9.13;3.97;;;;;;;12.85;100.00;100372.97;5029465;28;20116;-70
2024/04/05 01:06:52;;;;;;;10.13;3.97;;;;;;;13.30;100.00;100427.72;5028828;28;20483;-70
2024/04/05 01:09:19;;;;;;;7.22;3.80;;;;;;;12.40;100.00;100247.66;5029512;28;20476;-74
2024/04/05 01:11:56;;;;;;;5.88;3.80;;;;;;;12.70;100.00;100282.41;5027758;28;20048;-70
2024/04/05 01:14:21;;;;;;;5.05;3.17;;;;;;;12.93;100.00;100393.97;5011688;28;20025;-71
2024/04/05 01:16:47;;;;;;;6.68;3.33;;;;;;;13.09;100.00;100333.94;5028888;28;20106;-70
2024/04/05 01:19:16;;;;;;;6.13;3.33;;;;;;;13.09;100.00;100322.88;5028713;28;20038;-71
2024/04/05 01:21:41;;;;;;;7.88;3.60;;;;;;;12.14;100.00;100233.16;5029173;28;20053;-70
2024/04/05 01:24:09;;;;;;;5.90;3.00;;;;;;;12.19;100.00;100202.47;5028642;28;20072;-71
2024/04/05 01:26:34;;;;;;;4.88;2.85;;;;;;;12.33;100.00;100135.75;5027468;28;20029;-71
2024/04/05 01:28:59;;;;;;;3.97;2.95;;;;;;;13.13;100.00;100275.97;5029026;28;20128;-69
2024/04/05 01:31:25;;;;;;;5.60;3.10;;;;;;;12.32;100.00;100170.59;5028818;28;20030;-70
2024/04/05 01:33:50;;;;;;;3.70;2.83;;;;;;;12.62;100.00;100135.59;5010984;28;20029;-69
2024/04/05 01:36:15;;;;;;;5.53;2.90;;;;;;;12.80;100.00;100225.13;5028485;28;20041;-69
2024/04/05 01:38:42;;;;;;;5.88;2.85;;;;;;;12.73;100.00;100203.25;5011002;28;20029;-70
2024/04/05 01:41:08;;;;;;;4.78;2.63;;;;;;;12.74;100.00;100105.41;5028686;28;20037;-69
2024/04/05 01:43:33;;;;;;;5.43;2.58;;;;;;;12.66;100.00;100209.44;5027153;28;20035;-71
2024/04/05 01:45:58;;;;;;;5.85;2.58;;;;;;;12.39;100.00;100141.47;5028533;28;20087;-72
2024/04/05 01:48:24;;;;;;;6.22;3.05;;;;;;;12.28;100.00;100123.13;5028548;28;20040;-69
2024/04/05 01:50:49;;;;;;;5.60;3.33;;;;;;;12.79;100.00;100256.63;5028090;28;20112;-70
2024/04/05 01:53:15;;;;;;;4.80;2.65;;;;;;;11.98;100.00;100170.00;5028348;28;20043;-69
2024/04/05 01:55:40;;;;;;;4.15;2.90;;;;;;;11.67;100.00;100088.56;5027635;28;20026;-70
2024/04/05 01:58:08;;;;;;;4.18;2.67;;;;;;;12.75;100.00;100221.91;5028398;28;20041;-70
2024/04/05 02:00:33;;;;;;;5.03;2.72;;;;;;;12.43;100.00;100150.69;5027106;28;20029;-70
2024/04/05 02:02:59;;;;;;;5.38;2.83;;;;;;;12.30;100.00;100250.56;5028731;28;20029;-72
2024/04/05 02:05:24;;;;;;;7.07;3.28;;;;;;;12.95;100.00;100181.22;5028682;28;20037;-70
2024/04/05 02:07:50;;;;;;;7.63;3.78;;;;;;;11.75;100.00;100111.25;5028371;28;20025;-71
2024/04/05 02:10:15;;;;;;;7.60;3.45;;;;;;;12.68;100.00;100265.50;5028281;28;20030;-71
2024/04/05 02:12:41;;;;;;;6.75;3.70;;;;;;;12.03;100.00;100156.22;5028067;28;20025;-71
2024/04/05 02:15:06;;;;;;;4.68;3.58;;;;;;;12.39;100.00;100212.88;5010735;28;20030;-70
2024/04/05 02:17:32;;;;;;;7.80;3.13;;;;;;;12.70;100.00;100215.25;5027052;28;20038;-70
2024/04/05 02:19:57;;;;;;;5.70;3.45;;;;;;;12.27;100.00;100212.41;5027613;28;20524;-69
2024/04/05 02:22:23;;;;;;;7.68;3.85;;;;;;;12.21;100.00;100149.72;5027508;28;20033;-69
2024/04/05 02:24:48;;;;;;;8.95;3.80;;;;;;;12.58;100.00;100238.59;5028500;28;20069;-69
2024/04/05 02:27:16;;;;;;;8.10;4.90;;;;;;;12.05;100.00;100167.22;5028192;28;20124;-69
2024/04/05 02:29:41;;;;;;;7.80;4.47;;;;;;;12.08;100.00;100110.22;5010557;28;20515;-71
2024/04/05 02:32:07;;;;;;;7.80;5.05;;;;;;;12.40;100.00;100214.53;5027954;28;20029;-71
2024/04/05 02:34:32;;;;;;;10.45;5.10;;;;;;;12.24;100.00;100240.56;5026540;28;20443;-70
2024/04/05 02:36:58;;;;;;;9.68;5.00;;;;;;;12.38;100.00;100215.47;5010579;28;20041;-69
2024/04/05 02:39:23;;;;;;;9.27;5.13;;;;;;;11.77;100.00;100140.91;5027854;28;20034;-70
2024/04/05 02:41:49;;;;;;;10.02;5.15;;;;;;;12.24;100.00;100192.94;5009981;28;20040;-69
2024/04/05 02:44:15;;;;;;;8.02;4.60;;;;;;;12.55;100.00;100135.00;5027730;28;20112;-70
2024/04/05 02:46:41;;;;;;;8.77;4.82;;;;;;;12.27;100.00;100171.63;5026661;28;20065;-69
2024/04/05 02:49:07;;;;;;;7.70;4.82;;;;;;;12.67;100.00;100183.06;5008650;28;20037;-69
2024/04/05 02:51:33;;;;;;;8.95;5.05;;;;;;;12.32;100.00;100203.72;5027808;28;20026;-72
2024/04/05 02:53:58;;;;;;;7.15;4.80;;;;;;;12.63;100.00;100184.03;5026806;28;20466;-69
2024/04/05 02:56:24;;;;;;;8.05;5.32;;;;;;;12.60;100.00;100167.97;5026506;28;20044;-69
2024/04/05 02:58:49;;;;;;;6.97;4.60;;;;;;;11.95;100.00;100130.16;5028039;28;20389;-69
2024/04/05 03:01:15;;;;;;;7.00;4.82;;;;;;;12.58;100.00;100183.34;5024305;28;20431;-70
2024/04/05 03:03:40;;;;;;;11.65;5.55;;;;;;;11.26;100.00;100056.72;5026554;28;20117;-69
2024/04/05 03:06:06;;;;;;;9.02;5.13;;;;;;;11.58;100.00;100174.56;5027858;28;20036;-70
2024/04/05 03:08:32;;;;;;;8.40;5.50;;;;;;;11.30;100.00;100139.72;5030665;28;20033;-70
2024/04/05 03:10:57;;;;;;;12.32;5.97;;;;;;;12.02;100.00;100197.06;5030583;28;20029;-70
2024/04/05 03:13:23;;;;;;;10.27;6.10;;;;;;;11.58;100.00;100205.13;5030865;28;20107;-70
2024/04/05 03:15:49;;;;;;;9.25;7.00;;;;;;;11.28;100.00;100082.94;5032357;28;20507;-69
2024/04/05 03:18:14;;;;;;;10.65;7.28;;;;;;;11.39;100.00;100105.50;5018507;28;20045;-69
2024/04/05 03:20:41;;;;;;;11.65;7.38;;;;;;;11.45;100.00;100128.25;5029604;28;20045;-69
2024/04/05 03:23:07;;;;;;;12.18;6.75;;;;;;;11.90;100.00;100165.16;5029096;28;20032;-70
2024/04/05 03:25:32;;;;;;;8.68;5.57;;;;;;;11.40;100.00;100070.72;5015660;28;20065;-68
2024/04/05 03:27:58;;;;;;;9.55;5.70;;;;;;;11.29;100.00;100012.50;5029356;28;20037;-69
2024/04/05 03:30:23;;;;;;;10.40;6.20;;;;;;;11.86;100.00;100176.31;5028647;28;20037;-69
2024/04/05 03:32:49;;;;;;;8.85;6.30;;;;;;;11.77;100.00;100196.94;5032141;28;20026;-70
2024/04/05 03:35:15;;;;;;;11.32;6.38;;;;;;;11.53;100.00;100202.69;5033372;28;21624;-69
2024/04/05 03:37:40;;;;;;;11.75;6.32;;;;;;;10.56;100.00;100056.19;5030201;28;20072;-70
2024/04/05 03:40:06;;;;;;;8.95;6.72;;;;;;;10.76;100.00;100122.56;5030003;28;20404;-70
2024/04/05 03:42:32;;;;;;;11.23;7.57;;;;;;;10.88;100.00;100199.41;5015174;28;20030;-70
2024/04/05 03:44:57;;;;;;;11.02;7.53;;;;;;;10.13;100.00;100009.03;5029199;28;20090;-71
2024/04/05 03:47:23;;;;;;;12.13;7.53;;;;;;;10.50;100.00;100034.28;5028817;28;20025;-69
2024/04/05 03:49:48;;;;;;;10.07;6.30;;;;;;;10.34;100.00;100079.59;5027808;28;20040;-69
2024/04/05 03:52:14;;;;;;;8.30;5.97;;;;;;;10.63;100.00;100063.59;5015152;28;21037;-69
2024/04/05 03:54:39;;;;;;;6.97;5.13;;;;;;;11.25;100.00;100149.19;5029493;28;20045;-70
2024/04/05 03:57:05;;;;;;;8.48;5.28;;;;;;;11.02;100.00;100183.75;5028893;28;20061;-69
2024/04/05 03:59:30;;;;;;;10.48;6.63;;;;;;;10.22;100.00;100010.50;5016474;28;20033;-71
2024/04/05 04:01:56;;;;;;;16.40;9.48;;;;;;;10.99;100.00;100138.06;5029651;28;20033;-71
2024/04/05 04:04:22;;;;;;;19.73;12.45;;;;;;;10.81;100.00;100174.16;5029585;28;20124;-70
2024/04/05 04:06:47;;;;;;;20.33;13.45;;;;;;;10.46;100.00;100122.50;5028302;28;20043;-69
2024/04/05 04:09:14;;;;;;;15.43;11.63;;;;;;;10.85;100.00;100178.28;5016003;28;20921;-69
2024/04/05 04:11:40;;;;;;;16.15;10.70;;;;;;;10.55;100.00;100068.06;5014619;28;20029;-69
2024/04/05 04:14:06;;;;;;;16.08;10.63;;;;;;;10.87;100.00;100146.03;5015557;28;20068;-70
2024/04/05 04:16:31;;;;;;;9.90;6.53;;;;;;;10.40;100.00;100144.69;5027009;28;20044;-70
2024/04/05 04:18:57;;;;;;;8.32;6.55;;;;;;;10.40;100.00;100093.84;5029130;28;20044;-70
2024/04/05 04:21:26;;;;;;;8.57;5.93;;;;;;;10.16;100.00;100161.34;5027632;28;20036;-69
2024/04/05 04:23:52;;;;;;;7.45;5.72;;;;;;;9.66;100.00;99914.59;5029013;28;20104;-69
2024/04/05 04:26:19;;;;;;;8.05;5.28;;;;;;;10.23;100.00;100093.44;5011259;28;20030;-72
2024/04/05 04:28:44;;;;;;;7.80;5.78;;;;;;;9.12;100.00;99931.97;5028869;28;20065;-69
2024/04/05 04:31:17;;;;;;;9.60;5.80;;;;;;;9.97;100.00;99946.75;5028791;28;20522;-70
2024/04/05 04:33:45;;;;;;;9.48;5.70;;;;;;;10.20;100.00;99990.19;5029114;28;20030;-69
2024/04/05 04:36:10;;;;;;;8.68;5.80;;;;;;;9.04;100.00;99928.78;5010790;28;20032;-71
2024/04/05 04:38:36;;;;;;;7.72;5.85;;;;;;;10.12;100.00;99998.91;5027569;28;20110;-69
2024/04/05 04:41:02;;;;;;;10.43;5.50;;;;;;;10.45;100.00;100025.97;5027770;28;20037;-69
2024/04/05 04:43:28;;;;;;;11.15;6.00;;;;;;;10.65;100.00;99997.47;5014981;28;20092;-71
2024/04/05 04:45:53;;;;;;;10.23;5.93;;;;;;;11.34;100.00;99954.66;5029099;28;20108;-69
2024/04/05 04:48:18;;;;;;;13.10;6.43;;;;;;;11.91;100.00;99827.97;5013807;28;20037;-71
2024/04/05 04:50:44;;;;;;;11.82;6.43;;;;;;;10.43;100.00;99852.38;5014839;28;20033;-71
2024/04/05 04:53:10;;;;;;;8.32;5.97;;;;;;;11.30;100.00;100029.44;5029078;28;20037;-71
2024/04/05 04:55:35;;;;;;;9.70;6.50;;;;;;;11.78;100.00;100025.44;5016675;28;20064;-71
2024/04/05 04:58:01;;;;;;;12.00;5.72;;;;;;;11.42;100.00;99929.81;5028635;28;20041;-72
2024/04/05 05:00:27;;;;;;;11.07;5.80;;;;;;;11.55;100.00;99979.44;5028783;28;20029;-70
2024/04/05 05:02:53;;;;;;;19.42;5.68;;;;;;;11.91;100.00;100054.69;5013746;28;20037;-70
2024/04/05 05:05:18;;;;;;;11.25;5.72;;;;;;;12.01;100.00;100012.75;5028618;28;20510;-70
2024/04/05 05:07:44;;;;;;;13.63;5.40;;;;;;;12.42;100.00;100043.66;5027790;28;20030;-71
2024/04/05 05:10:09;;;;;;;7.25;4.28;;;;;;;13.14;100.00;100121.91;5029055;28;20029;-70
2024/04/05 05:12:36;;;;;;;7.30;4.68;;;;;;;12.66;100.00;100045.34;5029267;28;20108;-71
2024/04/05 05:15:02;;;;;;;7.72;4.43;;;;;;;13.45;100.00;100136.03;5029157;28;20497;-70
2024/04/05 05:17:28;;;;;;;8.43;5.25;;;;;;;13.29;100.00;100203.06;5029360;28;20099;-72
2024/04/05 05:19:53;;;;;;;7.20;4.85;;;;;;;12.88;100.00;100120.25;5028577;28;20041;-70
2024/04/05 05:22:19;;;;;;;8.50;4.85;;;;;;;13.34;100.00;100107.53;5011545;28;20026;-72
2024/04/05 05:24:44;;;;;;;6.53;4.60;;;;;;;13.48;100.00;100008.22;5010084;28;20495;-70
2024/04/05 05:27:10;;;;;;;5.20;4.10;;;;;;;13.20;100.00;100045.09;5028710;28;20112;-71
2024/04/05 05:29:35;;;;;;;6.15;4.40;;;;;;;14.07;100.00;99980.25;5010509;28;20029;-70
2024/04/05 05:32:01;;;;;;;7.95;4.50;;;;;;;13.75;100.00;100027.56;5028890;28;20944;-69
2024/04/05 05:34:27;;;;;;;7.00;3.88;;;;;;;14.03;100.00;100067.34;5010970;28;20038;-70
2024/04/05 05:36:52;;;;;;;6.78;3.70;;;;;;;13.92;100.00;99963.00;5028561;28;20078;-69
2024/04/05 05:39:19;;;;;;;5.53;3.20;;;;;;;14.50;100.00;100161.72;5010824;28;20127;-70
2024/04/05 05:41:45;;;;;;;3.90;2.80;;;;;;;14.89;100.00;100136.19;5009976;28;20034;-69
2024/04/05 05:44:11;;;;;;;8.10;3.60;;;;;;;14.63;100.00;100073.34;5027903;28;20056;-70
2024/04/05 05:46:36;;;;;;;7.80;4.38;;;;;;;14.13;100.00;100271.47;5011048;28;20120;-70
2024/04/05 05:49:02;;;;;;;11.45;5.57;;;;;;;13.52;100.00;100144.31;5028648;28;20083;-70
2024/04/05 05:51:28;;;;;;;10.95;5.95;;;;;;;14.06;100.00;100160.09;5011162;28;20411;-70
2024/04/05 05:53:53;;;;;;;12.82;5.53;;;;;;;14.31;100.00;100045.72;5028446;28;20029;-69
2024/04/05 05:56:21;;;;;;;10.20;6.10;;;;;;;14.66;100.00;100046.75;5011041;28;20472;-69
2024/04/05 05:58:47;;;;;;;7.93;5.50;;;;;;;15.40;100.00;100120.25;5028669;28;20060;-70
2024/04/05 06:01:12;;;;;;;8.57;6.15;;;;;;;14.82;100.00;100017.03;5027832;28;20095;-70
2024/04/05 06:03:38;;;;;;;8.73;5.43;;;;;;;15.79;100.00;100181.69;5009702;28;20107;-69
2024/04/05 06:06:06;;;;;;;7.80;4.90;;;;;;;14.97;100.00;100141.00;5027662;28;20032;-70
2024/04/05 06:08:32;;;;;;;9.90;5.05;;;;;;;15.04;100.00;100197.00;5032263;28;20083;-72
2024/04/05 06:10:58;;;;;;;8.20;4.97;;;;;;;15.30;100.00;100098.50;5031552;28;20037;-70
2024/04/05 06:13:24;;;;;;;7.57;5.10;;;;;;;15.67;100.00;100159.22;5027869;28;20079;-70
2024/04/05 06:15:57;;;;;;;8.18;4.53;;;;;;;15.56;100.00;100128.94;5010712;28;20475;-71
2024/04/05 06:18:25;;;;;;;10.93;4.28;;;;;;;15.68;100.00;100183.94;5010169;28;20522;-71
2024/04/05 06:20:57;;;;;;;8.68;4.55;;;;;;;17.37;100.00;100150.72;5027944;28;20036;-72
2024/04/05 06:23:24;;;;;;;11.30;4.30;;;;;;;17.15;100.00;100345.44;5010397;28;20033;-69
2024/04/05 06:25:59;;;;;;;9.15;3.53;;;;;;;17.86;100.00;100390.72;5028158;28;21007;-69
2024/04/05 06:28:26;;;;;;;8.15;3.75;;;;;;;18.91;100.00;100417.69;5027299;28;20029;-69
2024/04/05 06:30:51;;;;;;;7.00;3.40;;;;;;;18.54;100.00;100421.44;5028199;28;20037;-71
2024/04/05 06:33:17;;;;;;;12.20;5.05;;;;;;;17.81;100.00;100487.88;5026210;28;20106;-69
2024/04/05 06:35:43;;;;;;;8.93;4.15;;;;;;;19.18;100.00;100588.06;5027830;28;20068;-69
2024/04/05 06:38:08;;;;;;;9.27;4.70;;;;;;;18.71;100.00;100654.97;5027933;28;20072;-68
2024/04/05 06:40:39;;;;;;;8.10;4.28;;;;;;;18.97;100.00;100708.63;5028461;28;20484;-68
2024/04/05 06:43:06;;;;;;;7.32;3.80;;;;;;;18.60;100.00;100592.88;5031998;28;20033;-70
2024/04/05 06:45:32;;;;;;;5.32;2.95;;;;;;;18.38;100.00;100639.41;5031445;28;20140;-69
2024/04/05 06:47:58;;;;;;;6.18;3.83;;;;;;;18.62;100.00;100621.97;5031735;28;20116;-69
2024/04/05 06:50:26;;;;;;;6.95;3.95;;;;;;;19.13;100.00;100765.38;5031887;28;20033;-70
2024/04/05 06:52:58;;;;;;;9.85;4.28;;;;;;;18.90;100.00;100717.53;5031441;28;20075;-69
2024/04/05 06:55:23;;;;;;;;;;;;;;;19.63;100.00;100800.59;5014323;28;20040;-72
2024/04/05 06:57:50;;;;;;;8.18;3.80;;;;;;;19.69;100.00;100706.53;5014162;28;19917;-70
2024/04/05 07:00:16;;;;;;;9.23;3.13;;;;;;;18.95;100.00;100809.22;5013258;28;20048;-69
2024/04/05 07:02:42;;;;;;;9.02;5.32;;;;;;;20.14;100.00;100783.25;5031370;28;20041;-69
2024/04/05 07:05:07;;;;;;;6.43;3.40;;;;;;;19.95;100.00;100873.75;5012506;28;20423;-69
2024/04/05 07:07:32;;;;;;;8.93;3.08;;;;;;;20.06;100.00;100817.25;5031441;28;20060;-69
2024/04/05 07:09:58;;;;;;;4.65;2.85;;;;;;;20.66;100.00;100828.56;5030238;28;20500;-69
2024/04/05 07:12:23;;;;;;;9.00;3.47;;;;;;;20.92;100.00;100799.50;5013628;28;20484;-68
2024/04/05 07:14:49;;;;;;;6.05;3.10;;;;;;;20.65;100.00;100899.28;5031015;28;20025;-68
2024/04/05 07:17:14;;;;;;;5.85;2.72;;;;;;;20.80;100.00;100826.03;5013368;28;20039;-69
2024/04/05 07:19:40;;;;;;;7.53;4.60;;;;;;;21.92;100.00;100864.31;5012572;28;20048;-69
2024/04/05 07:22:07;;;;;;;6.07;3.00;;;;;;;21.03;100.00;100853.22;5030571;28;20080;-70
2024/04/05 07:24:34;;;;;;;5.03;2.53;;;;;;;21.79;100.00;100933.25;5031483;28;20040;-70
2024/04/05 07:27:00;;;;;;;7.35;3.92;;;;;;;21.96;100.00;100831.28;5031058;28;20029;-70
2024/04/05 07:29:25;;;;;;;4.70;1.33;;;;;;;20.57;100.00;100968.66;5031150;28;20060;-70
2024/04/05 07:31:51;;;;;;;6.10;1.60;;;;;;;21.61;100.00;100986.09;5031503;28;20029;-70
2024/04/05 07:34:16;;;;;;;3.53;1.80;;;;;;;20.90;100.00;100955.66;5031233;28;20453;-70
2024/04/05 07:36:41;;;;;;;5.47;2.22;;;;;;;21.68;100.00;100991.78;5031178;28;20044;-70
2024/04/05 07:39:08;;;;;;;5.00;1.50;;;;;;;21.95;100.00;100905.56;5030615;28;20033;-70
2024/04/05 07:41:34;;;;;;;2.70;1.30;;;;;;;22.27;100.00;100851.78;5013490;28;20064;-70
2024/04/05 07:44:00;;;;;;;3.97;2.40;;;;;;;22.08;100.00;101017.06;5031387;28;20053;-70
2024/04/05 07:46:25;;;;;;;3.28;1.10;;;;;;;22.54;100.00;100951.16;5030730;28;20057;-71
2024/04/05 07:48:51;;;;;;;5.50;1.52;;;;;;;22.86;100.00;100955.19;5031464;28;20029;-71
2024/04/05 07:51:17;;;;;;;3.95;1.10;;;;;;;22.64;100.00;100965.25;5030132;28;20498;-71
2024/04/05 07:53:45;;;;;;;3.85;1.17;;;;;;;22.35;100.00;100907.41;5030030;28;20034;-70
2024/04/05 07:56:10;;;;;;;1.75;0.60;;;;;;;22.04;100.00;100950.81;5029197;28;20103;-68
2024/04/05 07:58:35;;;;;;;1.50;0.50;;;;;;;21.73;100.00;100928.44;5030708;28;20495;-69
2024/04/05 08:01:03;;;;;;;2.03;0.40;;;;;;;22.18;100.00;100866.16;5030220;28;20029;-69
2024/04/05 08:03:29;;;;;;;3.85;0.50;;;;;;;22.99;100.00;100950.06;5030782;28;20044;-70
2024/04/05 08:05:54;;;;;;;2.17;0.40;;;;;;;22.75;100.00;100912.72;5013052;28;20045;-70
2024/04/05 08:08:20;;;;;;;2.45;0.50;;;;;;;21.90;100.00;100956.81;5030705;28;20052;-69
2024/04/05 08:10:45;;;;;;;1.30;0.50;;;;;;;22.65;100.00;100948.78;5030651;28;20029;-70
2024/04/05 08:13:11;;;;;;;0.98;0.47;;;;;;;22.71;100.00;100903.47;5012941;28;20033;-69
2024/04/05 08:15:36;;;;;;;2.00;0.40;;;;;;;23.68;100.00;100976.69;5029189;28;20041;-69
2024/04/05 08:18:02;;;;;;;0.75;0.32;;;;;;;21.99;100.00;100932.94;5029890;28;20885;-70
2024/04/05 08:20:27;;;;;;;1.77;0.60;;;;;;;22.79;100.00;100981.63;5029854;28;20100;-70
2024/04/05 08:22:53;;;;;;;1.73;0.43;;;;;;;22.39;100.00;101035.03;5012194;28;20033;-70
2024/04/05 08:25:18;;;;;;;2.38;0.55;;;;;;;23.21;100.00;100948.59;5029108;28;20068;-70
2024/04/05 08:27:44;;;;;;;1.92;0.43;;;;;;;22.16;100.00;100852.47;5028796;28;20048;-71
2024/04/05 08:30:13;;;;;;;2.92;0.40;;;;;;;23.36;100.00;100972.75;5012178;28;20040;-70
2024/04/05 08:32:42;;;;;;;2.58;0.47;;;;;;;23.43;100.00;100981.84;5030188;28;20041;-70
2024/04/05 08:35:09;;;;;;;4.00;0.80;;;;;;;23.52;100.00;100954.41;5029422;28;20029;-70
2024/04/05 08:37:36;;;;;;;7.35;0.80;;;;;;;23.34;100.00;100917.50;5012382;28;20045;-70
2024/04/05 08:40:01;;;;;;;3.75;0.60;;;;;;;23.19;100.00;100866.59;5028545;28;20026;-71
2024/04/05 08:42:34;;;;;;;2.28;0.70;;;;;;;23.55;100.00;100982.78;5030381;28;20558;-74
2024/04/05 08:45:00;;;;;;;4.07;0.50;;;;;;;23.65;100.00;100898.16;5035400;28;20518;-70
2024/04/05 08:47:29;;;;;;;0.68;0.40;;;;;;;24.60;100.00;100927.91;5012485;28;20117;-70
2024/04/05 08:50:06;;;;;;;1.90;0.88;;;;;;;24.20;100.00;100942.84;5030170;28;20038;-71
2024/04/05 08:52:32;;;;;;;6.80;0.85;;;;;;;24.03;100.00;100870.38;5011264;28;20025;-71
2024/04/05 08:54:59;;;;;;;2.17;0.47;;;;;;;23.66;100.00;100978.56;5030068;28;20096;-70
2024/04/05 08:57:30;;;;;;;3.15;0.52;;;;;;;23.64;100.00;100992.56;5029109;28;20041;-70
2024/04/05 08:59:55;;;;;;;4.55;0.50;;;;;;;23.47;100.00;100998.03;5011366;28;20041;-70
2024/04/05 09:02:23;;;;;;;2.80;0.60;;;;;;;23.54;100.00;100874.66;5029693;28;20408;-70
2024/04/05 09:04:49;;;;;;;1.75;0.43;;;;;;;24.65;100.00;100915.38;5010545;28;20072;-70
2024/04/05 09:07:15;;;;;;;3.70;0.50;;;;;;;24.09;100.00;100921.94;5010778;28;20068;-70
2024/04/05 09:09:46;;;;;;;3.08;0.68;;;;;;;23.59;100.00;100857.81;5029682;28;20124;-69
2024/04/05 09:12:14;;;;;;;0.80;0.32;;;;;;;23.18;100.00;100825.97;5029581;28;20033;-70
2024/04/05 09:14:40;;;;;;;1.85;0.30;;;;;;;24.83;100.00;100898.50;5028930;28;20036;-70
2024/04/05 09:17:18;;;;;;;3.58;0.43;;;;;;;24.46;100.00;100800.59;5028829;28;20061;-70
2024/04/05 09:19:43;;;;;;;1.85;0.38;;;;;;;25.06;100.00;100881.22;5010861;28;20504;-70
2024/04/05 09:22:23;;;;;;;1.42;0.30;;;;;;;25.02;100.00;100885.78;5010071;28;20036;-70
2024/04/05 09:25:03;;;;;;;7.25;0.60;;;;;;;23.91;100.00;100715.31;5021688;28;20022;-70
2024/04/05 09:27:29;;;;;;;1.95;0.30;;;;;;;24.41;100.00;100943.94;5028590;28;20033;-70
2024/04/05 09:30:05;;;;;;;13.57;9.33;;;;;;;23.54;100.00;100978.50;4661899;28;9999630;-71
2024/04/05 09:32:31;;;;;;;2.50;0.60;;;;;;;23.49;100.00;100884.53;5006674;28;20865;-70
2024/04/05 09:34:57;;;;;;;2.22;1.27;;;;;;;23.33;100.00;100785.22;5008133;28;20037;-71
2024/04/05 09:37:25;;;;;;;14.30;10.20;;;;;;;23.91;100.00;100939.59;5007600;28;20034;-69
2024/04/05 09:39:52;;;;;;;5.68;4.65;;;;;;;24.03;100.00;100961.34;5026513;28;20029;-70
2024/04/05 09:42:22;;;;;;;1.73;1.08;;;;;;;23.52;100.00;100954.41;5026941;28;20068;-69
2024/04/05 09:44:55;;;;;;;2.78;1.15;;;;;;;23.49;100.00;100900.09;5026603;28;20660;-68
2024/04/05 09:47:28;;;;;;;2.38;1.25;;;;;;;23.44;100.00;101027.63;5026750;28;20041;-72
2024/04/05 09:49:54;;;;;;;4.25;2.00;;;;;;;22.81;100.00;101055.81;5009898;28;20029;-69
2024/04/05 09:52:24;;;;;;;2.72;0.77;;;;;;;23.18;100.00;100987.72;5027968;28;20040;-68
2024/04/05 09:54:59;;;;;;;1.65;0.70;;;;;;;23.38;100.00;100989.06;5010725;28;20095;-69
2024/04/05 09:57:26;;;;;;;1.10;0.47;;;;;;;23.07;100.00;100947.81;5009795;28;20114;-70
2024/04/05 09:59:53;;;;;;;0.77;0.30;;;;;;;23.29;100.00;101006.03;5028351;28;20419;-69
2024/04/05 10:02:20;;;;;;;2.38;0.70;;;;;;;23.08;100.00;101020.38;5009526;28;20022;-69
2024/04/05 10:04:46;;;;;;;0.80;0.38;;;;;;;23.15;100.00;101026.88;5010245;28;20036;-69
2024/04/05 10:07:12;;;;;;;1.67;0.90;;;;;;;23.75;100.00;100993.50;5010729;28;20076;-69
2024/04/05 10:09:38;;;;;;;1.83;0.50;;;;;;;22.75;100.00;100910.13;5027139;28;20030;-70
2024/04/05 10:12:13;;;;;;;1.88;0.57;;;;;;;22.91;100.00;100954.91;5028153;28;20510;-69
2024/04/05 10:14:39;;;;;;;1.60;0.50;;;;;;;22.59;100.00;100982.03;5025759;28;20030;-68
2024/04/05 10:17:07;;;;;;;0.88;0.38;;;;;;;23.10;100.00;101025.47;5027814;28;20041;-69
2024/04/05 10:19:36;;;;;;;1.63;0.50;;;;;;;23.57;100.00;101025.06;5027516;28;20060;-68
2024/04/05 10:22:05;;;;;;;1.20;0.35;;;;;;;23.04;100.00;101057.81;5008861;28;20116;-69
2024/04/05 10:24:32;;;;;;;1.20;0.40;;;;;;;22.65;100.00;100979.88;5026084;28;20036;-69
2024/04/05 10:26:58;;;;;;;1.15;0.30;;;;;;;23.00;100.00;101022.63;5009749;28;20108;-69
2024/04/05 10:29:25;;;;;;;0.68;0.35;;;;;;;22.83;100.00;101064.34;5010035;28;20041;-69
2024/04/05 10:32:00;;;;;;;4.40;1.00;;;;;;;23.81;100.00;100998.31;5009276;28;20514;-69
2024/04/05 10:34:25;;;;;;;5.50;0.60;;;;;;;23.85;100.00;100908.00;5027014;28;20025;-71
2024/04/05 10:36:51;;;;;;;1.38;0.47;;;;;;;24.02;100.00;100946.69;5027435;28;20429;-69
2024/04/05 10:39:19;;;;;;;0.60;0.30;;;;;;;23.64;100.00;100987.38;5026991;28;20041;-70
2024/04/05 10:41:49;;;;;;;0.85;0.45;;;;;;;22.85;100.00;100956.16;5027636;28;20519;-70
2024/04/05 10:44:16;;;;;;;0.75;0.38;;;;;;;22.36;100.00;100953.13;5027907;28;20037;-68
2024/04/05 10:46:45;;;;;;;1.08;0.50;;;;;;;22.73;100.00;100948.28;5026677;28;20029;-69
2024/04/05 10:49:14;;;;;;;1.67;0.50;;;;;;;22.77;100.00;100945.41;5008913;28;20033;-69
2024/04/05 10:51:39;;;;;;;1.60;0.40;;;;;;;23.00;100.00;101022.63;5027365;28;20087;-69
2024/04/05 10:54:12;;;;;;;1.63;0.60;;;;;;;22.77;100.00;101028.41;5028102;28;20033;-69
2024/04/05 10:56:42;;;;;;;1.30;0.40;;;;;;;22.97;100.00;101027.19;5027071;28;20072;-73
2024/04/05 10:59:17;;;;;;;2.03;0.50;;;;;;;23.12;100.00;101021.84;5009695;28;20029;-71
2024/04/05 11:01:43;;;;;;;1.17;0.50;;;;;;;23.13;100.00;101043.47;5026017;28;20052;-69
2024/04/05 11:04:12;;;;;;;3.22;0.50;;;;;;;22.60;100.00;100898.94;5027119;28;20065;-70
2024/04/05 11:06:39;;;;;;;2.35;0.30;;;;;;;22.89;100.00;101027.66;5027609;28;20110;-71
2024/04/05 11:09:15;;;;;;;3.33;0.50;;;;;;;22.68;100.00;101033.34;5026242;28;20041;-68
2024/04/05 11:11:41;;;;;;;2.72;0.47;;;;;;;22.82;100.00;101030.72;5025954;28;20030;-69
2024/04/05 11:14:08;;;;;;;1.55;0.50;;;;;;;22.94;100.00;100998.81;5027327;28;20558;-68